Salvamar Mimosa — EC2473 — position and weather

sailwx.info

Track history (hours):
 
Tides and Currents Weather Stations Pressure Air Temp Water Temp Dewpoint Dewpoint Depression Visibility Wind Speed Wind Dir Waves Ship Positions

Salvamar Mimosa

Last reported at 2017-Apr-15 04:13 UTC. Time now 2017-Apr-23 14:05 UTC.
Position N 37°33' W 000°57'.
Warning: this ship's position is 8 days out of date.

Length 21 m.

MMSI: 224363280.

Date/timePositionNaut miles runAvg speedWind from/ knotsBaromVisibWave heightAir tempDewpointWater temp
2017-Apr-15 04:13N 37°33' W 000°57'521.0
2017-Apr-15 04:00N 37°31' W 000°51'2220.5
2017-Apr-15 02:57N 37°26' W 000°25'1620.1
2017-Apr-15 02:11N 37°22' W 000°06'520.9
2017-Apr-15 01:56N 37°20' E 000°00'820.0
2017-Apr-15 01:30N 37°17' E 000°10'1020.7
2017-Apr-15 01:00N 37°13' E 000°22'611.9
2017-Apr-15 00:30N 37°10' E 000°29'3 5.6
2017-Apr-15 00:00N 37°10' E 000°26'1420.0
2017-Apr-14 23:19N 37°13' E 000°09'4820.7
2017-Apr-14 21:01N 37°30' W 000°47'020.6
2017-Apr-14 21:00N 37°30' W 000°47'  
Track history (hours):
 
Tides and Currents Weather Stations Pressure Air Temp Water Temp Dewpoint Dewpoint Depression Visibility Wind Speed Wind Dir Waves Ship Positions

Salvamar Mimosa

Last reported at 2017-Apr-15 04:13 UTC. Time now 2017-Apr-23 14:05 UTC.
Position N 37°33' W 000°57'.
Warning: this ship's position is 8 days out of date.

Length 21 m.

MMSI: 224363280.

Date/timePositionNaut miles runAvg speedWind from/ knotsBaromVisibWave heightAir tempDewpointWater temp
2017-Apr-15 04:13N 37°33' W 000°57'521.0
2017-Apr-15 04:00N 37°31' W 000°51'2220.5
2017-Apr-15 02:57N 37°26' W 000°25'1620.1
2017-Apr-15 02:11N 37°22' W 000°06'520.9
2017-Apr-15 01:56N 37°20' E 000°00'820.0
2017-Apr-15 01:30N 37°17' E 000°10'1020.7
2017-Apr-15 01:00N 37°13' E 000°22'611.9
2017-Apr-15 00:30N 37°10' E 000°29'3 5.6
2017-Apr-15 00:00N 37°10' E 000°26'1420.0
2017-Apr-14 23:19N 37°13' E 000°09'4820.7
2017-Apr-14 21:01N 37°30' W 000°47'020.6
2017-Apr-14 21:00N 37°30' W 000°47'  

Dump ship's entire track history